Abeche, Chad

12:13 PM WAT on July 07, 2015 (GMT +0100)
Abeche | | Change Station
CLOSE
Current Station
Airport
Location: Abeche,
Elevation: 1788 ft
Nearby Weather Stations

Elev 1788 ft 13.85 °N, 20.84 °E | Updated 1 hour ago

Partly Cloudy
Partly Cloudy
99 °F
Feels Like 98 °F
N
0
Wind Variable Wind from North

Today
High -- | Low -- °F
--% Chance of Precip.
Yesterday
High -- | Low -- °F
Precip. -- in
5:14 AM 6:08 PM
Waning Gibbous, 66% visible
Pressure 29.95 in
Visibility 6.2 miles
Clouds Few 4000 ft
Heat Index 98 °F
Dew Point 59 °F
Humidity 27%
Rainfall 0.00 in
Snow Depth Not available.
UV 16 out of 12
Pollen Not available.
Air Quality Not available.
Flu Activity Not available.
METAR FTTC 071000Z 00000KT 9999 FEW040 37/15 Q1014

More Conditions Fewer Conditions

Pressure 29.95 in
Visibility 6.2 miles
Clouds Few 4000 ft
Heat Index 98 °F
Dew Point 59 °F
Humidity 27%
Rainfall 0.00 in
Snow Depth Not available.
UV 16 out of 12
Pollen Not available.
Air Quality Not available.
Flu Activity Not available.
METAR FTTC 071000Z 00000KT 9999 FEW040 37/15 Q1014

More Conditions Fewer Conditions

10-Day Weather Forecast

×

Almanac

Astronomy

Jul. 07, 2015 Rise Set
Actual Time
Civil Twilight
Nautical Twilight
Astronomical Twilight
Moon
Length of Visible Light
Length of Day
Tomorrow will be .
, % of the Moon is Illuminated

Today's Extremes

Country Highs Country Lows

Community

WunderPhotos

Upload Photos

1,835,767 photos uploaded!

WunderBlogs® & News

Nearby

Air Quality

  Air Quality AQ Index Pollutant
Not available.

Snow Depth

Station Depth Elevation

Earthquake Activity

City Distance Mag. Time & Date
Minimum magnitude displayed is 2.5.

Coastal Water Temperatures

Place Temperature

Stations

Nearby Weather Stations

Station Location Temp. Windchill Dew Point Humidity Wind Precip. Elev Updated Type